Time;durP1;ratioP1;P1;durP2;ratioP2;P2;SDS_P1;SDS_P2;PMS_P1;PMS_P2;Temp;Humidity;BMP_temperature;BMP_pressure;BME280_temperature;BME280_humidity;BME280_pressure;Samples;Min_cycle;Max_cycle;Signal;HPM_P1;HPM_P2
2023/01/13 00:01:09;;;;;;;14.15;9.52;;;7.80;99.90;;;;;;5055097;28;20018;-86
2023/01/13 00:03:35;;;;;;;10.05;6.43;;;7.60;99.90;;;;;;5055691;28;20028;-87
2023/01/13 00:06:01;;;;;;;13.38;9.80;;;7.70;99.90;;;;;;5055402;28;20424;-86
2023/01/13 00:08:27;;;;;;;15.00;10.57;;;7.60;99.90;;;;;;5055364;28;20024;-86
2023/01/13 00:10:53;;;;;;;12.95;9.55;;;7.40;99.90;;;;;;5055142;28;20068;-86
2023/01/13 00:13:25;;;;;;;12.68;9.32;;;7.50;99.90;;;;;;5055636;28;20029;-86
2023/01/13 00:16:02;;;;;;;13.20;7.72;;;7.50;99.90;;;;;;5054764;28;20639;-86
2023/01/13 00:18:28;;;;;;;8.13;5.03;;;7.60;99.90;;;;;;5055065;28;20104;-86
2023/01/13 00:21:21;;;;;;;7.25;4.60;;;7.70;99.90;;;;;;5054936;28;20143;-86
2023/01/13 00:23:48;;;;;;;8.55;6.35;;;7.80;99.90;;;;;;5047024;28;20041;-86
2023/01/13 00:26:25;;;;;;;10.52;5.70;;;7.80;99.90;;;;;;5055005;28;20028;-86
2023/01/13 00:28:55;;;;;;;7.45;4.47;;;7.80;99.90;;;;;;5054536;28;20048;-86
2023/01/13 00:31:21;;;;;;;9.13;4.50;;;7.90;99.90;;;;;;5054935;28;20025;-86
2023/01/13 00:33:50;;;;;;;6.13;4.25;;;7.90;99.90;;;;;;5054708;28;20043;-86
2023/01/13 00:36:18;;;;;;;6.63;3.58;;;7.90;99.90;;;;;;5055069;28;20025;-86
2023/01/13 00:38:44;;;;;;;7.38;3.53;;;8.10;99.90;;;;;;5054739;28;20083;-86
2023/01/13 00:41:11;;;;;;;5.18;3.33;;;8.10;99.90;;;;;;5054448;28;20033;-86
2023/01/13 00:43:38;;;;;;;6.15;3.22;;;8.10;99.90;;;;;;5054385;28;20028;-86
2023/01/13 00:46:05;;;;;;;6.93;3.45;;;8.20;99.90;;;;;;5054709;28;20055;-86
2023/01/13 00:48:31;;;;;;;7.95;3.10;;;8.30;99.90;;;;;;5054526;28;20032;-86
2023/01/13 00:51:03;;;;;;;4.85;2.80;;;8.40;99.90;;;;;;5054750;28;20037;-86
2023/01/13 00:53:33;;;;;;;8.13;3.17;;;8.50;99.90;;;;;;5053844;28;20421;-87
2023/01/13 00:56:06;;;;;;;6.40;3.13;;;8.60;99.90;;;;;;5054808;28;20029;-86
2023/01/13 00:58:33;;;;;;;5.13;2.83;;;8.60;99.90;;;;;;5054175;28;20485;-86
2023/01/13 01:01:04;;;;;;;5.13;2.50;;;8.60;99.90;;;;;;5054289;28;20036;-85
2023/01/13 01:03:31;;;;;;;7.60;2.88;;;8.60;99.90;;;;;;5054191;28;20021;-86
2023/01/13 01:06:02;;;;;;;5.30;3.08;;;8.60;99.90;;;;;;5054277;28;20100;-86
2023/01/13 01:08:28;;;;;;;5.70;2.88;;;8.60;99.90;;;;;;5054360;28;20053;-86
2023/01/13 01:11:10;;;;;;;6.72;3.25;;;8.60;99.90;;;;;;5054352;28;20056;-87
2023/01/13 01:13:36;;;;;;;5.63;2.95;;;8.50;99.90;;;;;;5053657;28;20069;-86
2023/01/13 01:16:05;;;;;;;6.80;2.97;;;8.60;99.90;;;;;;5053798;28;20017;-86
2023/01/13 01:18:33;;;;;;;6.00;2.50;;;8.60;99.90;;;;;;5054316;28;20078;-85
2023/01/13 01:20:59;;;;;;;5.00;2.60;;;8.60;99.90;;;;;;5053916;28;20017;-86
2023/01/13 01:23:26;;;;;;;4.45;2.45;;;8.60;99.90;;;;;;5053662;28;20025;-86
2023/01/13 01:25:52;;;;;;;3.80;2.20;;;8.50;99.90;;;;;;5053969;28;20029;-86
2023/01/13 01:28:19;;;;;;;6.20;2.63;;;8.50;99.90;;;;;;5053492;28;20029;-86
2023/01/13 01:30:45;;;;;;;7.15;2.50;;;8.50;99.90;;;;;;5053480;28;20485;-86
2023/01/13 01:33:10;;;;;;;5.70;2.25;;;8.60;99.90;;;;;;5053875;28;20033;-86
2023/01/13 01:35:40;;;;;;;7.00;2.65;;;8.60;99.90;;;;;;5053393;28;20052;-86
2023/01/13 01:38:05;;;;;;;6.18;2.40;;;8.70;99.90;;;;;;5053986;28;20104;-86
2023/01/13 01:40:31;;;;;;;5.80;2.30;;;8.70;99.90;;;;;;5053713;28;20541;-86
2023/01/13 01:45:42;;;;;;;4.18;2.20;;;8.80;99.90;;;;;;5053490;28;20120;-86
2023/01/13 01:48:09;;;;;;;6.43;2.50;;;8.80;99.90;;;;;;5035428;28;20021;-86
2023/01/13 01:50:35;;;;;;;4.85;2.30;;;8.70;99.90;;;;;;5053425;28;20029;-86
2023/01/13 01:53:15;;;;;;;5.70;2.20;;;8.70;99.90;;;;;;5052473;28;20511;-86
2023/01/13 01:55:41;;;;;;;6.80;2.40;;;8.80;99.90;;;;;;5053235;28;20040;-86
2023/01/13 01:58:22;;;;;;;6.78;2.30;;;8.80;99.90;;;;;;5053178;28;20488;-86
2023/01/13 02:00:47;;;;;;;4.65;2.40;;;8.80;99.90;;;;;;5053327;28;20035;-86
2023/01/13 02:03:15;;;;;;;3.28;2.00;;;8.90;99.90;;;;;;5053182;28;20025;-86
2023/01/13 02:05:41;;;;;;;6.07;2.30;;;8.90;99.90;;;;;;5053046;28;20411;-86
2023/01/13 02:08:10;;;;;;;4.15;2.13;;;8.90;99.90;;;;;;5053402;28;20032;-86
2023/01/13 02:10:36;;;;;;;5.65;2.10;;;8.90;99.90;;;;;;5052768;28;20057;-86
2023/01/13 02:13:05;;;;;;;6.45;2.28;;;8.90;99.90;;;;;;5052867;28;20060;-86
2023/01/13 02:16:03;;;;;;;6.95;2.65;;;8.80;99.90;;;;;;5034904;28;20128;-86
2023/01/13 02:18:59;;;;;;;3.95;1.95;;;8.80;99.90;;;;;;5053030;28;20017;-86
2023/01/13 02:21:33;;;;;;;3.30;2.03;;;8.90;99.90;;;;;;5052914;28;20052;-86
2023/01/13 02:27:16;;;;;;;8.38;2.53;;;9.00;99.90;;;;;;5053029;28;20048;-86
2023/01/13 02:33:05;;;;;;;5.72;2.20;;;9.20;99.90;;;;;;5052743;28;20028;-86
2023/01/13 02:35:49;;;;;;;8.05;2.90;;;9.20;99.90;;;;;;5052548;28;20115;-87
2023/01/13 02:38:18;;;;;;;6.50;3.10;;;9.20;99.90;;;;;;5052525;28;20036;-86
2023/01/13 02:40:55;;;;;;;8.20;2.78;;;9.30;99.90;;;;;;5052164;28;20044;-85
2023/01/13 02:46:25;;;;;;;9.02;4.03;;;9.30;99.90;;;;;;5053061;28;20113;-86
2023/01/13 02:48:53;;;;;;;6.70;2.35;;;9.30;99.90;;;;;;5052460;28;20056;-86
2023/01/13 02:51:22;;;;;;;4.85;2.40;;;9.40;99.90;;;;;;5052450;28;20048;-87
2023/01/13 02:54:07;;;;;;;4.32;2.17;;;9.40;99.90;;;;;;5052011;28;20560;-84
2023/01/13 02:56:36;;;;;;;4.22;2.20;;;9.30;99.90;;;;;;5052299;28;20023;-86
2023/01/13 02:59:01;;;;;;;8.57;3.13;;;9.30;99.90;;;;;;5052064;28;20053;-86
2023/01/13 03:01:27;;;;;;;5.40;2.42;;;9.30;99.90;;;;;;5052031;28;20079;-86
2023/01/13 03:03:53;;;;;;;5.05;2.25;;;9.30;99.90;;;;;;5051327;28;20040;-86
2023/01/13 03:06:31;;;;;;;5.90;2.67;;;9.20;99.90;;;;;;5052120;28;20029;-86
2023/01/13 03:09:09;;;;;;;5.60;2.75;;;9.10;99.90;;;;;;5051694;28;20036;-86
2023/01/13 03:11:54;;;;;;;8.18;2.70;;;8.90;99.90;;;;;;5052210;28;20017;-86
2023/01/13 03:14:37;;;;;;;7.55;2.50;;;8.80;99.90;;;;;;5051676;28;20037;-86
2023/01/13 03:17:23;;;;;;;6.63;2.30;;;8.90;99.90;;;;;;5052181;28;20507;-86
2023/01/13 03:19:51;;;;;;;5.93;2.08;;;8.90;99.90;;;;;;5034680;28;20544;-86
2023/01/13 03:22:35;;;;;;;6.72;2.25;;;9.00;99.90;;;;;;5051676;28;20025;-86
2023/01/13 03:25:10;;;;;;;5.53;2.53;;;8.90;99.90;;;;;;5051616;28;20541;-86
2023/01/13 03:27:55;;;;;;;4.97;2.30;;;8.80;99.90;;;;;;5052200;28;20044;-86
2023/01/13 03:30:41;;;;;;;6.38;2.30;;;8.80;99.90;;;;;;5051771;28;20033;-86
2023/01/13 03:33:31;;;;;;;8.65;2.00;;;8.80;99.90;;;;;;5051705;28;20025;-86
2023/01/13 03:36:01;;;;;;;7.43;2.40;;;8.80;99.90;;;;;;5052043;28;20389;-86
2023/01/13 03:38:35;;;;;;;6.10;2.63;;;8.80;99.90;;;;;;5051626;28;20013;-86
2023/01/13 03:41:26;;;;;;;5.15;2.20;;;8.80;99.90;;;;;;5051780;28;20563;-86
2023/01/13 03:44:23;;;;;;;7.70;2.60;;;8.90;99.90;;;;;;5051494;28;20029;-87
2023/01/13 03:46:53;;;;;;;4.93;1.95;;;8.90;99.90;;;;;;5051787;28;20029;-86
2023/01/13 03:49:23;;;;;;;5.22;2.25;;;8.90;99.90;;;;;;5051765;28;20083;-86
2023/01/13 03:51:54;;;;;;;4.68;2.05;;;8.90;99.90;;;;;;5051474;28;20025;-86
2023/01/13 03:54:23;;;;;;;5.43;2.20;;;8.90;99.90;;;;;;5051784;28;20051;-86
2023/01/13 03:56:55;;;;;;;5.47;2.22;;;8.80;99.90;;;;;;5051578;28;20021;-86
2023/01/13 03:59:30;;;;;;;5.75;2.20;;;8.80;99.90;;;;;;5051701;28;20025;-86
2023/01/13 04:02:18;;;;;;;5.22;2.30;;;8.70;99.90;;;;;;5051850;28;20024;-86
2023/01/13 04:04:55;;;;;;;6.68;2.30;;;8.80;99.90;;;;;;5051637;28;20041;-86
2023/01/13 04:07:30;;;;;;;6.93;2.47;;;8.70;99.90;;;;;;5051300;28;20048;-86
2023/01/13 04:09:57;;;;;;;4.82;2.30;;;8.70;99.90;;;;;;5051500;28;20041;-86
2023/01/13 04:15:19;;;;;;;8.25;2.40;;;8.60;99.90;;;;;;5052713;28;20586;-86
2023/01/13 04:17:44;;;;;;;5.80;1.92;;;8.60;99.90;;;;;;5055107;28;20033;-86
2023/01/13 04:20:11;;;;;;;5.75;2.28;;;8.50;99.90;;;;;;5054902;28;20051;-86
2023/01/13 04:22:36;;;;;;;6.38;2.22;;;8.60;99.90;;;;;;5036875;28;20374;-86
2023/01/13 04:25:02;;;;;;;6.00;2.13;;;8.60;99.90;;;;;;5054813;28;20127;-86
2023/01/13 04:27:28;;;;;;;5.78;2.22;;;8.60;99.90;;;;;;5055314;28;20104;-86
2023/01/13 04:29:53;;;;;;;7.93;2.20;;;8.60;99.90;;;;;;5054775;28;20025;-86
2023/01/13 04:32:19;;;;;;;6.03;2.15;;;8.60;99.90;;;;;;5054819;28;20029;-86
2023/01/13 04:34:44;;;;;;;3.65;2.30;;;8.60;99.90;;;;;;5054438;28;20037;-86
2023/01/13 04:37:10;;;;;;;4.85;2.33;;;8.70;99.90;;;;;;5054860;28;20025;-86
2023/01/13 04:39:36;;;;;;;7.68;2.60;;;8.60;99.90;;;;;;5054780;28;20056;-86
2023/01/13 04:42:02;;;;;;;7.22;2.63;;;8.60;99.90;;;;;;5054679;28;20473;-86
2023/01/13 04:44:30;;;;;;;7.82;2.97;;;8.60;99.90;;;;;;5054726;28;20107;-86
2023/01/13 04:46:57;;;;;;;6.45;2.30;;;8.50;99.90;;;;;;5054620;28;20397;-86
2023/01/13 04:49:22;;;;;;;9.18;3.08;;;8.60;99.90;;;;;;5054600;28;20039;-86
2023/01/13 04:51:48;;;;;;;9.35;2.45;;;8.60;99.90;;;;;;5054572;28;20017;-86
2023/01/13 04:54:15;;;;;;;5.32;2.47;;;8.60;99.90;;;;;;5054058;28;20119;-86
2023/01/13 04:56:40;;;;;;;7.85;2.47;;;8.60;99.90;;;;;;5054516;28;20055;-86
2023/01/13 04:59:06;;;;;;;7.43;2.92;;;8.70;99.90;;;;;;5054353;28;20037;-86
2023/01/13 05:01:31;;;;;;;9.25;2.78;;;8.60;99.90;;;;;;5054354;28;20025;-86
2023/01/13 05:03:57;;;;;;;7.97;3.10;;;8.70;99.90;;;;;;5054055;28;20444;-86
2023/01/13 05:06:23;;;;;;;7.35;3.13;;;8.70;99.90;;;;;;5054186;28;20032;-86
2023/01/13 05:08:49;;;;;;;9.40;3.22;;;8.70;99.90;;;;;;5054408;28;20021;-86
2023/01/13 05:17:02;;;;;;;7.38;2.78;;;8.70;99.90;;;;;;5053952;28;20031;-86
2023/01/13 05:19:37;;;;;;;6.55;3.03;;;8.70;99.90;;;;;;5053522;28;20079;-87
2023/01/13 05:27:32;;;;;;;7.15;2.40;;;8.70;99.90;;;;;;5052705;28;20111;-87
2023/01/13 05:29:58;;;;;;;6.72;2.63;;;8.70;99.90;;;;;;5035716;28;20497;-86
2023/01/13 05:32:26;;;;;;;12.48;2.88;;;8.70;99.90;;;;;;5053649;28;20017;-86
2023/01/13 05:34:53;;;;;;;5.55;2.55;;;8.70;99.90;;;;;;5053384;28;20028;-86
2023/01/13 05:37:19;;;;;;;8.77;2.80;;;8.70;99.90;;;;;;5053473;28;20029;-86
2023/01/13 05:45:13;;;;;;;6.75;1.60;;;8.70;99.90;;;;;;5053530;28;20083;-86
2023/01/13 05:47:38;;;;;;;7.40;1.77;;;8.80;99.90;;;;;;5053415;28;20060;-86
2023/01/13 05:50:05;;;;;;;6.72;1.88;;;8.80;99.90;;;;;;5052961;28;20044;-86
2023/01/13 05:52:31;;;;;;;8.57;2.20;;;8.80;99.90;;;;;;5053169;28;20056;-86
2023/01/13 05:54:56;;;;;;;6.78;2.20;;;8.70;99.90;;;;;;5052704;28;20059;-86
2023/01/13 05:57:22;;;;;;;6.57;2.03;;;8.70;99.90;;;;;;5053348;28;20029;-86
2023/01/13 05:59:47;;;;;;;5.45;1.80;;;8.70;99.90;;;;;;5053197;28;20021;-86
2023/01/13 06:02:13;;;;;;;3.45;1.85;;;8.70;99.90;;;;;;5052787;28;20028;-86
2023/01/13 06:04:39;;;;;;;6.60;2.10;;;8.70;99.90;;;;;;5053363;28;20021;-87
2023/01/13 06:07:04;;;;;;;6.63;2.92;;;8.80;99.90;;;;;;5052827;28;20033;-86
2023/01/13 06:09:30;;;;;;;5.90;2.25;;;8.80;99.90;;;;;;5052938;28;20028;-86
2023/01/13 06:11:56;;;;;;;5.53;2.20;;;8.80;99.90;;;;;;5053272;28;20114;-86
2023/01/13 06:14:22;;;;;;;4.68;2.40;;;8.80;99.90;;;;;;5052485;28;20498;-85
2023/01/13 06:16:47;;;;;;;5.30;2.40;;;8.70;99.90;;;;;;5052462;28;20025;-86
2023/01/13 06:19:13;;;;;;;6.57;2.10;;;8.70;99.90;;;;;;5053093;28;20440;-86
2023/01/13 06:21:39;;;;;;;5.35;2.10;;;8.70;99.90;;;;;;5052649;28;20406;-86
2023/01/13 06:24:06;;;;;;;6.00;2.25;;;8.80;99.90;;;;;;5052613;28;20103;-86
2023/01/13 06:26:38;;;;;;;6.30;2.10;;;8.80;99.90;;;;;;5052549;28;20108;-86
2023/01/13 06:29:05;;;;;;;9.00;2.25;;;8.80;99.90;;;;;;5052450;28;20032;-86
2023/01/13 06:31:34;;;;;;;3.75;2.08;;;8.80;99.90;;;;;;5052462;28;20096;-86
2023/01/13 06:34:05;;;;;;;5.57;1.98;;;8.80;99.90;;;;;;5052450;28;20044;-86
2023/01/13 06:36:36;;;;;;;4.75;2.35;;;8.80;99.90;;;;;;5052559;28;20104;-86
2023/01/13 06:39:03;;;;;;;7.68;2.10;;;8.80;99.90;;;;;;5052146;28;20094;-86
2023/01/13 06:44:15;;;;;;;6.72;2.85;;;8.90;99.90;;;;;;5052594;28;20036;-85
2023/01/13 06:46:41;;;;;;;5.22;2.38;;;8.80;99.90;;;;;;5052076;28;20028;-86
2023/01/13 06:49:06;;;;;;;5.50;2.33;;;8.80;99.90;;;;;;5052061;28;20039;-86
2023/01/13 06:51:32;;;;;;;4.00;1.92;;;8.80;99.90;;;;;;5052167;28;20049;-86
2023/01/13 06:53:58;;;;;;;5.57;2.05;;;8.70;99.90;;;;;;5052083;28;20036;-86
2023/01/13 06:56:23;;;;;;;4.97;1.70;;;8.80;99.90;;;;;;5052106;28;20029;-86
2023/01/13 06:58:49;;;;;;;3.40;1.90;;;8.80;99.90;;;;;;5052138;28;20029;-86
2023/01/13 07:01:14;;;;;;;5.07;1.90;;;8.80;99.90;;;;;;5051804;28;20465;-86
2023/01/13 07:03:40;;;;;;;5.38;1.90;;;8.80;99.90;;;;;;5052352;28;20059;-86
2023/01/13 07:06:06;;;;;;;6.03;2.05;;;8.80;99.90;;;;;;5051954;28;20393;-86
2023/01/13 07:08:32;;;;;;;5.55;2.00;;;8.80;99.90;;;;;;5051861;28;20565;-86
2023/01/13 07:10:57;;;;;;;5.18;2.15;;;8.80;99.90;;;;;;5051903;28;20104;-86
2023/01/13 07:16:08;;;;;;;4.05;2.03;;;8.90;99.90;;;;;;5051635;28;20401;-86
2023/01/13 07:18:34;;;;;;;5.07;2.05;;;9.00;99.90;;;;;;5052029;28;20098;-86
2023/01/13 07:21:03;;;;;;;5.15;2.00;;;9.00;99.90;;;;;;5051809;28;20423;-86
2023/01/13 07:23:32;;;;;;;4.70;1.98;;;9.10;99.90;;;;;;5051655;28;20029;-86
2023/01/13 07:25:59;;;;;;;5.03;2.00;;;9.00;99.90;;;;;;5051897;28;20029;-86
2023/01/13 07:28:25;;;;;;;5.50;1.90;;;9.00;99.90;;;;;;5051505;28;20025;-86
2023/01/13 07:30:51;;;;;;;5.97;2.13;;;9.10;99.90;;;;;;5051727;28;20025;-86
2023/01/13 07:33:17;;;;;;;4.70;1.88;;;9.40;99.90;;;;;;5051616;28;20484;-86
2023/01/13 07:35:44;;;;;;;3.75;2.10;;;9.50;99.90;;;;;;5051992;28;20033;-86
2023/01/13 07:38:09;;;;;;;7.03;2.40;;;9.50;99.90;;;;;;5051727;28;20099;-86
2023/01/13 07:40:36;;;;;;;6.28;2.33;;;9.40;99.90;;;;;;5051705;28;20458;-86
2023/01/13 07:45:46;;;;;;;3.50;2.63;;;9.40;99.90;;;;;;5051764;28;20508;-86
2023/01/13 07:48:12;;;;;;;7.00;2.80;;;9.20;99.90;;;;;;5051862;28;20033;-85
2023/01/13 07:50:38;;;;;;;5.63;2.92;;;9.10;99.90;;;;;;5053636;28;20552;-85
2023/01/13 07:53:04;;;;;;;3.40;2.00;;;9.40;99.90;;;;;;5055534;28;20112;-82
2023/01/13 07:55:29;;;;;;;4.70;2.55;;;9.50;99.90;;;;;;5055460;28;20501;-81
2023/01/13 07:57:55;;;;;;;6.20;2.30;;;9.40;99.90;;;;;;5053952;28;20029;-82
2023/01/13 08:00:21;;;;;;;4.25;2.33;;;9.50;99.90;;;;;;5055662;28;20033;-84
2023/01/13 08:02:47;;;;;;;7.68;4.65;;;9.40;99.90;;;;;;5055446;28;20478;-83
2023/01/13 08:05:13;;;;;;;7.30;4.68;;;9.50;99.90;;;;;;5055830;28;20027;-83
2023/01/13 08:07:39;;;;;;;8.90;5.47;;;9.50;99.90;;;;;;5055758;28;20421;-82
2023/01/13 08:10:05;;;;;;;11.80;5.28;;;9.40;99.90;;;;;;5055614;28;20072;-82
2023/01/13 08:15:15;;;;;;;123.78;40.85;;;9.40;99.90;;;;;;5054915;28;20043;-81
2023/01/13 08:17:41;;;;;;;47.90;19.17;;;9.30;99.90;;;;;;5054980;28;20025;-82
2023/01/13 08:20:07;;;;;;;34.50;16.40;;;9.30;99.90;;;;;;5054909;28;20053;-82
2023/01/13 08:22:32;;;;;;;40.22;16.92;;;9.20;99.90;;;;;;5055111;28;20114;-82
2023/01/13 08:24:59;;;;;;;16.08;8.13;;;9.20;99.90;;;;;;5055174;28;20140;-82
2023/01/13 08:27:24;;;;;;;15.40;7.63;;;8.90;99.90;;;;;;5054547;28;20159;-82
2023/01/13 08:29:50;;;;;;;11.43;6.28;;;9.10;99.90;;;;;;5054920;28;20505;-82
2023/01/13 08:32:16;;;;;;;7.82;4.57;;;9.20;99.90;;;;;;5054606;28;20070;-82
2023/01/13 08:34:41;;;;;;;9.98;6.18;;;9.30;99.90;;;;;;5053470;28;20059;-82
2023/01/13 08:37:07;;;;;;;28.15;21.05;;;9.50;99.90;;;;;;5054771;28;20025;-82
2023/01/13 08:39:34;;;;;;;6.25;4.75;;;9.70;99.90;;;;;;5054676;28;20087;-82
2023/01/13 08:42:01;;;;;;;7.55;4.18;;;9.70;99.90;;;;;;5054819;28;20052;-82
2023/01/13 08:44:28;;;;;;;5.28;3.53;;;9.70;99.90;;;;;;5054633;28;20037;-82
2023/01/13 08:46:55;;;;;;;7.32;3.85;;;10.00;99.90;;;;;;5054404;28;20029;-82
2023/01/13 08:49:21;;;;;;;6.00;3.65;;;10.30;99.90;;;;;;5054630;28;20119;-82
2023/01/13 08:51:48;;;;;;;7.50;3.60;;;10.30;99.90;;;;;;5054865;28;20021;-82
2023/01/13 08:54:14;;;;;;;5.55;1.80;;;10.30;99.90;;;;;;5054128;28;20029;-81
2023/01/13 08:56:41;;;;;;;4.13;2.28;;;10.30;99.90;;;;;;5053948;28;20021;-82
2023/01/13 08:59:18;;;;;;;2.83;1.98;;;10.10;99.90;;;;;;5054241;28;20056;-81
2023/01/13 09:01:44;;;;;;;5.35;1.98;;;10.20;99.90;;;;;;5054119;28;20082;-82
2023/01/13 09:04:22;;;;;;;4.07;2.00;;;10.30;99.90;;;;;;5054615;28;20384;-82
2023/01/13 09:06:48;;;;;;;6.20;1.88;;;10.50;99.90;;;;;;5054195;28;20101;-82
2023/01/13 09:09:14;;;;;;;4.20;1.65;;;10.70;99.90;;;;;;5054247;28;20021;-82
2023/01/13 09:14:30;;;;;;;2.65;1.50;;;11.00;99.90;;;;;;5054063;28;20086;-82
2023/01/13 09:16:55;;;;;;;4.18;1.77;;;11.20;99.90;;;;;;5054061;28;20021;-82
2023/01/13 09:19:21;;;;;;;3.10;1.67;;;11.30;99.90;;;;;;5053939;28;20104;-82
2023/01/13 09:21:47;;;;;;;3.38;1.77;;;11.80;99.90;;;;;;5054382;28;20032;-82
2023/01/13 09:24:12;;;;;;;2.85;1.90;;;13.00;99.90;;;;;;5053634;28;20041;-82
2023/01/13 09:26:38;;;;;;;3.30;1.73;;;18.80;99.90;;;;;;5053689;28;20028;-82
2023/01/13 09:29:04;;;;;;;3.30;1.60;;;23.10;99.90;;;;;;5054014;28;20040;-82
2023/01/13 09:31:33;;;;;;;4.45;2.40;;;22.30;99.90;;;;;;5053710;28;20028;-82
2023/01/13 09:36:47;;;;;;;5.97;2.63;;;18.00;99.90;;;;;;5053844;28;20035;-82
2023/01/13 09:39:13;;;;;;;6.38;3.10;;;15.90;99.90;;;;;;5054002;28;20029;-82
2023/01/13 09:44:50;;;;;;;8.00;3.75;;;14.50;99.90;;;;;;5053602;28;20496;-82
2023/01/13 09:47:34;;;;;;;6.60;3.53;;;13.80;99.90;;;;;;5052158;28;20032;-82
2023/01/13 09:50:23;;;;;;;8.93;4.70;;;13.00;99.90;;;;;;5053652;28;20366;-83
2023/01/13 09:52:49;;;;;;;8.52;4.20;;;12.20;99.90;;;;;;5053678;28;20052;-82
2023/01/13 09:55:21;;;;;;;4.47;2.58;;;11.50;99.90;;;;;;5052743;28;20084;-82
2023/01/13 09:57:47;;;;;;;8.52;5.80;;;11.50;99.90;;;;;;5052964;28;20025;-82
2023/01/13 10:00:20;;;;;;;7.13;4.28;;;11.60;99.90;;;;;;5053279;28;20115;-82
2023/01/13 10:03:13;;;;;;;9.07;4.97;;;11.50;99.90;;;;;;5053082;28;20028;-82
2023/01/13 10:05:50;;;;;;;6.63;3.83;;;11.30;99.90;;;;;;5053451;28;20028;-82
2023/01/13 10:08:24;;;;;;;11.18;5.30;;;11.10;99.90;;;;;;5052551;28;20028;-82
2023/01/13 10:13:13;;;;;;;7.20;5.20;;;11.40;99.90;;;;;;5053115;28;20021;-82
2023/01/13 10:13:51;;;;;;;7.53;3.25;;;11.50;99.90;;;;;;5052458;28;20048;-82
2023/01/13 10:16:26;;;;;;;4.28;2.58;;;11.90;99.90;;;;;;5052593;28;20036;-82
2023/01/13 10:19:16;;;;;;;3.88;2.30;;;12.10;99.90;;;;;;5052795;28;20116;-82
2023/01/13 10:21:57;;;;;;;4.45;2.92;;;12.50;99.90;;;;;;5052761;28;20027;-82
2023/01/13 10:24:37;;;;;;;6.50;2.85;;;13.00;99.90;;;;;;5052394;28;20037;-82
2023/01/13 10:27:16;;;;;;;5.63;2.33;;;13.80;99.90;;;;;;5052562;28;20055;-82
2023/01/13 10:29:42;;;;;;;5.63;3.03;;;14.90;99.90;;;;;;5052568;28;20486;-82
2023/01/13 10:32:09;;;;;;;6.18;3.65;;;14.80;99.90;;;;;;5052431;28;20103;-82
2023/01/13 10:34:47;;;;;;;9.15;4.53;;;14.50;99.90;;;;;;5052912;28;20110;-82
2023/01/13 10:37:20;;;;;;;7.38;4.55;;;15.60;99.90;;;;;;5052451;28;20044;-82
2023/01/13 10:39:47;;;;;;;6.72;4.95;;;18.30;99.90;;;;;;5052393;28;20029;-82
2023/01/13 10:42:16;;;;;;;6.78;4.78;;;21.60;99.90;;;;;;5052311;28;20082;-82
2023/01/13 10:44:47;;;;;;;8.13;5.15;;;19.10;99.90;;;;;;5052352;28;20028;-82
2023/01/13 10:47:22;;;;;;;7.80;4.45;;;19.10;99.90;;;;;;5052817;28;20025;-82
2023/01/13 10:49:58;;;;;;;7.15;4.55;;;22.90;99.90;;;;;;5052377;28;20032;-82
2023/01/13 10:52:35;;;;;;;7.53;4.97;;;23.40;99.90;;;;;;5051904;28;20032;-82
2023/01/13 10:55:01;;;;;;;6.90;5.35;;;20.20;99.90;;;;;;5051984;28;20091;-82
2023/01/13 10:57:28;;;;;;;4.65;2.25;;;25.70;99.90;;;;;;5052436;28;20420;-83
2023/01/13 10:59:54;;;;;;;2.72;1.80;;;27.00;99.90;;;;;;5052207;28;20025;-83
2023/01/13 11:02:26;;;;;;;4.25;1.90;;;22.70;99.90;;;;;;5052047;28;20112;-82
2023/01/13 11:04:52;;;;;;;2.67;1.77;;;19.20;99.90;;;;;;5052100;28;20032;-82
2023/01/13 11:07:27;;;;;;;3.63;2.05;;;17.00;99.90;;;;;;5051806;28;20397;-82
2023/01/13 11:10:08;;;;;;;3.53;1.98;;;16.50;99.90;;;;;;5052141;28;20462;-82
2023/01/13 11:12:44;;;;;;;2.80;1.85;;;16.70;99.90;;;;;;5051962;28;20025;-82
2023/01/13 11:15:16;;;;;;;4.10;2.30;;;17.00;99.90;;;;;;5052325;28;20033;-82
2023/01/13 11:18:10;;;;;;;3.38;1.70;;;23.70;99.90;;;;;;5034077;28;20474;-82
2023/01/13 11:20:40;;;;;;;5.07;1.80;;;26.10;99.90;;;;;;5050696;28;20029;-82
2023/01/13 11:23:38;;;;;;;3.58;1.73;;;26.30;99.90;;;;;;5051610;28;20021;-82
2023/01/13 11:26:22;;;;;;;2.88;1.75;;;22.20;99.90;;;;;;5051841;28;20036;-82
2023/01/13 11:29:01;;;;;;;1.83;1.13;;;20.00;99.90;;;;;;5055953;28;20094;-83
2023/01/13 11:31:32;;;;;;;2.28;1.30;;;17.00;99.90;;;;;;5056395;28;20072;-82
2023/01/13 11:34:28;;;;;;;2.15;1.60;;;16.70;99.90;;;;;;5055452;28;20025;-82
2023/01/13 11:36:57;;;;;;;2.63;1.48;;;16.60;99.90;;;;;;5055428;28;20064;-82
2023/01/13 11:39:36;;;;;;;3.00;1.50;;;16.30;99.90;;;;;;5056074;28;20021;-82
2023/01/13 11:42:23;;;;;;;2.90;1.88;;;16.10;99.90;;;;;;5055853;28;20032;-82
2023/01/13 11:45:03;;;;;;;6.75;3.35;;;16.00;99.90;;;;;;5055543;28;20428;-82
2023/01/13 11:47:31;;;;;;;6.35;4.05;;;15.80;99.90;;;;;;5056738;28;20507;-82
2023/01/13 11:49:57;;;;;;;6.38;3.80;;;15.80;99.90;;;;;;5054988;28;20020;-82
2023/01/13 11:52:32;;;;;;;7.10;6.38;;;16.80;99.90;;;;;;5055581;28;20548;-82
2023/01/13 11:54:58;;;;;;;5.40;3.70;;;17.50;99.90;;;;;;5054669;28;20484;-82
2023/01/13 11:58:12;;;;;;;6.18;4.40;;;17.20;99.90;;;;;;5055491;28;20025;-82
2023/01/13 12:01:07;;;;;;;6.95;4.93;;;17.00;99.90;;;;;;5055202;28;20449;-82
2023/01/13 12:03:44;;;;;;;6.20;5.03;;;16.70;99.90;;;;;;5037446;28;20032;-82
2023/01/13 12:06:20;;;;;;;4.82;4.22;;;17.50;99.90;;;;;;5055331;28;20025;-82
2023/01/13 12:09:10;;;;;;;5.70;4.03;;;19.10;99.90;;;;;;5054742;28;20104;-82
2023/01/13 12:12:18;;;;;;;6.22;3.97;;;22.70;99.90;;;;;;5055325;28;20468;-82
2023/01/13 12:14:40;;;;;;;6.03;4.10;;;21.30;99.90;;;;;;5055546;28;20041;-82
2023/01/13 12:17:21;;;;;;;5.40;4.20;;;21.70;99.90;;;;;;5055090;28;20029;-82
2023/01/13 12:19:49;;;;;;;7.25;5.07;;;23.50;99.90;;;;;;5054750;28;20040;-82
2023/01/13 12:22:22;;;;;;;6.72;4.57;;;24.60;99.90;;;;;;5055033;28;20105;-82
2023/01/13 12:25:01;;;;;;;8.23;4.80;;;26.60;99.90;;;;;;5054732;28;20119;-82
2023/01/13 12:27:39;;;;;;;4.45;3.97;;;26.90;99.90;;;;;;5055003;28;20538;-83
2023/01/13 12:30:40;;;;;;;5.82;4.15;;;25.70;99.90;;;;;;5054930;28;20029;-83
2023/01/13 12:33:19;;;;;;;8.30;5.53;;;27.00;99.90;;;;;;5054576;28;20452;-82
2023/01/13 12:35:53;;;;;;;4.85;3.85;;;28.10;99.90;;;;;;5054500;28;20025;-82
2023/01/13 12:38:44;;;;;;;4.25;3.63;;;24.20;99.90;;;;;;5054593;28;20032;-82
2023/01/13 12:41:09;;;;;;;2.85;2.15;;;22.00;99.90;;;;;;5054778;28;20489;-82
2023/01/13 12:46:21;;;;;;;4.53;3.50;;;22.40;99.90;;;;;;5054961;28;20051;-83
2023/01/13 12:48:55;;;;;;;5.45;3.80;;;20.10;99.90;;;;;;5053971;28;20477;-83
2023/01/13 12:51:31;;;;;;;3.97;3.58;;;19.00;99.90;;;;;;5054657;28;20032;-83
2023/01/13 12:53:59;;;;;;;4.63;3.10;;;19.30;99.90;;;;;;5054606;28;20037;-82
2023/01/13 12:56:54;;;;;;;5.35;3.50;;;18.20;99.90;;;;;;5055134;28;20408;-82
2023/01/13 12:59:20;;;;;;;5.25;3.50;;;18.50;99.90;;;;;;5041374;28;20400;-82
2023/01/13 13:02:12;;;;;;;4.97;3.28;;;18.60;99.90;;;;;;5054368;28;20021;-82
2023/01/13 13:04:45;;;;;;;4.55;3.00;;;18.90;99.90;;;;;;4992449;28;20092;-82
2023/01/13 13:07:44;;;;;;;4.40;2.75;;;19.40;99.90;;;;;;4993241;28;20031;-82
2023/01/13 13:10:37;;;;;;;5.45;2.80;;;19.60;99.90;;;;;;4992643;28;20089;-82
2023/01/13 13:13:19;;;;;;;3.90;2.45;;;19.00;99.90;;;;;;4992552;28;20105;-82
2023/01/13 13:15:47;;;;;;;5.50;4.43;;;18.80;99.90;;;;;;4992530;28;20112;-82
2023/01/13 13:18:26;;;;;;;4.20;2.60;;;18.10;99.90;;;;;;4992292;28;20150;-82
2023/01/13 13:20:56;;;;;;;3.75;2.22;;;17.80;99.90;;;;;;4992363;28;20398;-82
2023/01/13 13:23:43;;;;;;;5.05;3.90;;;17.30;99.90;;;;;;4992176;28;20077;-82
2023/01/13 13:26:20;;;;;;;5.30;2.83;;;16.70;99.90;;;;;;4993560;28;20121;-82
2023/01/13 13:29:00;;;;;;;5.13;3.50;;;16.30;99.90;;;;;;4992536;28;20038;-82
2023/01/13 13:31:35;;;;;;;9.65;5.10;;;16.30;99.90;;;;;;4991911;28;20615;-82
2023/01/13 13:34:29;;;;;;;8.20;4.80;;;15.70;99.90;;;;;;4992139;28;20125;-82
2023/01/13 13:37:31;;;;;;;4.00;3.10;;;15.10;99.90;;;;;;4990136;28;20043;-82
2023/01/13 13:48:33;;;;;;;3.15;2.30;;;14.60;99.90;;;;;;5052646;28;20440;-82
2023/01/13 13:51:03;;;;;;;5.07;3.00;;;14.40;99.90;;;;;;5053599;28;20047;-82
2023/01/13 13:53:39;;;;;;;3.47;2.55;;;14.40;99.90;;;;;;5053179;28;20021;-82
2023/01/13 13:56:24;;;;;;;3.80;2.63;;;14.30;99.90;;;;;;5053265;28;20033;-82
2023/01/13 13:58:51;;;;;;;6.10;2.72;;;13.90;99.90;;;;;;5053649;28;20049;-81
2023/01/13 14:01:27;;;;;;;5.43;3.28;;;13.90;99.90;;;;;;5035122;28;20481;-82
2023/01/13 14:04:13;;;;;;;6.47;3.53;;;13.90;99.90;;;;;;5053538;28;20033;-81
2023/01/13 14:07:08;;;;;;;6.85;3.22;;;14.00;99.90;;;;;;5052831;28;20041;-82
2023/01/13 14:09:43;;;;;;;3.97;2.35;;;13.80;99.90;;;;;;5042043;28;20063;-82
2023/01/13 14:12:19;;;;;;;3.85;2.53;;;14.00;99.90;;;;;;5052825;28;20550;-81
2023/01/13 14:14:46;;;;;;;4.22;2.88;;;14.10;99.90;;;;;;5052573;28;20095;-81
2023/01/13 14:17:29;;;;;;;3.30;2.03;;;14.00;99.90;;;;;;5052615;28;20021;-82
2023/01/13 14:19:58;;;;;;;2.88;1.95;;;15.10;99.90;;;;;;5053176;28;20025;-82